Accueil
METAR-TAF:

METAR-TAF

Aéroports :

Locarno, Suisse

latitude: 46-09-55N, longitude: 8-52-40E, altitude: 198 m

Observation

Le bulletin a été fait il y a 1 heure et 3 minutes, à 08:50 UTC
Vent 1 kt de direction variable
Température 25°C
Humidité 65%
Pression 1020 hPa
Visibilité 10 km ou plus
Quelques nuages à une hauteur de 6000 ft

METAR: LSZL 170850Z VRB01KT 9999 FEW060 25/18 Q1020 RMK BLU+

Heure: 11:53 (09:53 UTC)

Prévision

Le bulletin a été fait il y a 4 heures et 28 minutes, à 05:25 UTC
Prévision valable du 17 à 06 UTC au 17 à 15 UTC
Vent 3 kt de direction variable
Visibilité 10 km ou plus
Quelques nuages à une hauteur de 5000 ft
Nuages épars à une hauteur de 10000 ft
Evoluant progressivement
du 17 à 11 UTC au 17 à 14 UTC
Visibilité 10 km ou plus
pas de nuages en-dessous de 1500 mètres et pas de cumulonimbus.

TAF: LSZL 170525Z 1706/1715 VRB03KT 9999 FEW050 SCT100 BECMG 1711/1714 CAVOK

Observations et prévisions météorologiques de plus de 4000 aéroports (messages METAR et TAF).

Les stations disponibles sont représentées par des disques jaunes et rouges sur la carte.

Passer la souris dessus pour voir le nom de la station.

Cliquer dessus pour voir les observations et prévisions météorologiques.

Pour changer de carte: cliquez sur les boutons verts avec une croix noire pour zoomer, sur le bouton vert avec un tiret pour effectuer un zoom arrière, ou sur les flèches vertes pour les cartes adjacentes.


METAR-TAF: